Time;durP1;ratioP1;P1;durP2;ratioP2;P2;SDS_P1;SDS_P2;PMS_P1;PMS_P2;Temp;Humidity;BMP_temperature;BMP_pressure;BME280_temperature;BME280_humidity;BME280_pressure;Samples;Min_cycle;Max_cycle;Signal;HPM_P1;HPM_P2
2022/06/24 00:00:05;;;;;;;17.67;5.77;;;;;;;21.67;100.00;100439.03;4996695;28;20084;-67
2022/06/24 00:02:31;;;;;;;15.48;5.82;;;;;;;21.49;100.00;100440.75;4999542;28;20096;-68
2022/06/24 00:04:59;;;;;;;10.98;5.97;;;;;;;21.22;100.00;100463.63;5009253;28;20029;-68
2022/06/24 00:07:24;;;;;;;13.65;6.53;;;;;;;21.09;100.00;100511.19;5012638;28;20038;-68
2022/06/24 00:09:50;;;;;;;16.05;6.72;;;;;;;20.95;100.00;100534.00;5012417;28;20076;-68
2022/06/24 00:12:18;;;;;;;17.60;7.50;;;;;;;20.84;100.00;100555.38;5009572;28;20041;-68
2022/06/24 00:14:45;;;;;;;17.45;8.30;;;;;;;20.78;100.00;100542.84;4994605;28;20034;-69
2022/06/24 00:17:13;;;;;;;19.60;11.40;;;;;;;20.85;100.00;100528.72;4994581;28;20061;-69
2022/06/24 00:19:59;;;;;;;24.45;15.00;;;;;;;20.70;100.00;100544.34;5012858;28;20034;-69
2022/06/24 00:22:27;;;;;;;25.70;14.80;;;;;;;20.51;100.00;100565.50;5012897;28;20044;-70
2022/06/24 00:25:25;;;;;;;24.88;16.15;;;;;;;20.51;100.00;100593.00;5012866;28;20069;-69
2022/06/24 00:28:07;;;;;;;25.52;16.83;;;;;;;20.41;100.00;100607.72;4984041;28;20141;-69
2022/06/24 00:30:53;;;;;;;19.98;16.80;;;;;;;20.57;100.00;100605.56;4993146;28;20045;-70
2022/06/24 00:33:21;;;;;;;20.63;15.95;;;;;;;20.30;100.00;100589.75;4993136;28;20026;-69
2022/06/24 00:35:49;;;;;;;17.77;13.13;;;;;;;20.22;100.00;100599.47;5008852;28;20044;-70
2022/06/24 00:38:28;;;;;;;21.67;12.30;;;;;;;20.14;100.00;100600.09;5012748;28;20042;-71
2022/06/24 00:40:56;;;;;;;15.88;10.68;;;;;;;20.17;100.00;100640.75;5011030;28;20129;-71
2022/06/24 00:43:32;;;;;;;14.80;10.48;;;;;;;20.06;100.00;100636.50;5000495;28;20038;-71
2022/06/24 00:46:10;;;;;;;9.13;7.25;;;;;;;20.10;100.00;100637.53;4993148;28;20129;-72
2022/06/24 00:48:40;;;;;;;11.82;7.65;;;;;;;19.84;100.00;100626.88;4993126;28;20109;-71
2022/06/24 00:51:07;;;;;;;12.57;7.88;;;;;;;19.70;100.00;100610.25;4992888;28;20062;-70
2022/06/24 00:53:43;;;;;;;10.57;4.70;;;;;;;19.52;100.00;100602.75;4993145;28;20031;-71
2022/06/24 00:56:11;;;;;;;7.95;4.18;;;;;;;19.26;100.00;100620.31;5003741;28;20125;-71
2022/06/24 00:58:37;;;;;;;7.65;3.58;;;;;;;19.15;100.00;100616.03;4996312;28;20107;-70
2022/06/24 01:01:03;;;;;;;5.78;2.83;;;;;;;19.02;100.00;100613.94;4990513;28;20117;-72
2022/06/24 01:03:40;;;;;;;6.38;2.40;;;;;;;18.94;100.00;100590.72;5007938;28;20390;-71
2022/06/24 01:06:07;;;;;;;4.03;2.20;;;;;;;18.86;100.00;100592.16;4992910;28;20041;-71
2022/06/24 01:08:33;;;;;;;5.43;2.50;;;;;;;18.84;100.00;100593.50;5008045;28;20482;-71
2022/06/24 01:10:58;;;;;;;6.32;2.33;;;;;;;18.76;100.00;100579.31;4992975;28;20050;-70
2022/06/24 01:13:24;;;;;;;5.25;2.20;;;;;;;18.71;100.00;100557.44;4993200;28;20112;-70
2022/06/24 01:15:49;;;;;;;3.58;2.10;;;;;;;18.57;100.00;100557.28;4992745;28;20034;-71
2022/06/24 01:18:15;;;;;;;5.43;2.15;;;;;;;18.45;100.00;100540.38;4992320;28;20109;-69
2022/06/24 01:20:40;;;;;;;3.83;1.98;;;;;;;18.35;100.00;100540.44;4992367;28;20080;-71
2022/06/24 01:23:05;;;;;;;1.52;1.40;;;;;;;18.24;100.00;100548.72;4992587;28;20472;-70
2022/06/24 01:25:31;;;;;;;2.67;1.75;;;;;;;18.24;100.00;100543.25;4992567;28;20026;-70
2022/06/24 01:27:57;;;;;;;2.58;1.70;;;;;;;18.19;100.00;100546.03;4993423;28;20397;-71
2022/06/24 01:30:22;;;;;;;3.50;1.90;;;;;;;18.13;100.00;100538.97;4995020;28;20102;-71
2022/06/24 01:32:48;;;;;;;7.03;1.80;;;;;;;18.20;100.00;100542.19;4996733;28;20089;-70
2022/06/24 01:35:14;;;;;;;3.53;1.63;;;;;;;18.33;100.00;100538.00;5015755;28;20105;-71
2022/06/24 01:37:39;;;;;;;3.22;1.65;;;;;;;18.30;100.00;100535.00;5016063;28;20049;-71
2022/06/24 01:40:05;;;;;;;4.80;1.55;;;;;;;18.20;100.00;100539.44;5015731;28;20033;-70
2022/06/24 01:42:30;;;;;;;3.58;1.30;;;;;;;18.16;100.00;100543.88;5002163;28;20040;-70
2022/06/24 01:44:56;;;;;;;2.22;1.48;;;;;;;18.17;100.00;100545.47;4996284;28;20031;-70
2022/06/24 01:47:21;;;;;;;6.65;1.40;;;;;;;18.12;100.00;100520.06;4996011;28;20109;-71
2022/06/24 01:49:46;;;;;;;1.95;1.38;;;;;;;18.08;100.00;100508.03;5011243;28;20026;-71
2022/06/24 01:52:12;;;;;;;4.03;1.33;;;;;;;18.01;100.00;100500.13;4995771;28;20033;-70
2022/06/24 01:54:37;;;;;;;3.75;1.30;;;;;;;17.96;100.00;100500.97;5009582;28;20101;-70
2022/06/24 01:57:03;;;;;;;2.72;1.10;;;;;;;17.97;100.00;100499.09;5015723;28;20061;-70
2022/06/24 01:59:28;;;;;;;2.63;1.25;;;;;;;18.08;100.00;100500.63;5015370;28;20033;-70
2022/06/24 02:01:53;;;;;;;2.90;1.20;;;;;;;18.13;100.00;100506.09;5012849;28;20032;-70
2022/06/24 02:04:19;;;;;;;6.38;1.23;;;;;;;18.08;100.00;100500.63;5015626;28;20029;-70
2022/06/24 02:06:44;;;;;;;3.67;1.20;;;;;;;18.18;100.00;100495.09;5015463;28;20034;-70
2022/06/24 02:09:09;;;;;;;1.88;1.10;;;;;;;18.11;100.00;100489.13;5012829;28;20389;-70
2022/06/24 02:14:19;;;;;;;3.22;1.40;;;;;;;18.22;100.00;100496.16;4995435;28;20044;-70
2022/06/24 02:16:46;;;;;;;1.85;1.10;;;;;;;18.21;100.00;100502.75;4996066;28;20456;-70
2022/06/24 02:19:11;;;;;;;6.28;1.35;;;;;;;18.26;100.00;100503.81;4995466;28;20045;-70
2022/06/24 02:21:37;;;;;;;1.58;1.10;;;;;;;18.24;100.00;100502.16;4995465;28;20038;-70
2022/06/24 02:24:03;;;;;;;4.00;1.40;;;;;;;18.29;100.00;100504.06;4996259;28;20069;-71
2022/06/24 02:26:29;;;;;;;1.80;1.30;;;;;;;18.31;100.00;100499.09;4995019;28;20035;-69
2022/06/24 02:28:54;;;;;;;3.42;1.80;;;;;;;18.30;100.00;100491.16;4995559;28;20026;-69
2022/06/24 02:31:20;;;;;;;4.07;1.50;;;;;;;18.33;100.00;100496.91;5009900;28;20033;-72
2022/06/24 02:33:46;;;;;;;4.82;1.85;;;;;;;18.43;100.00;100493.25;4995505;28;20042;-73
2022/06/24 02:36:12;;;;;;;3.60;1.65;;;;;;;18.42;100.00;100484.22;4995522;28;20065;-72
2022/06/24 02:38:37;;;;;;;2.85;1.55;;;;;;;18.49;100.00;100477.59;4996371;28;20092;-71
2022/06/24 02:41:03;;;;;;;3.40;1.70;;;;;;;18.52;100.00;100475.09;5029700;28;20289;-69
2022/06/24 02:43:29;;;;;;;2.53;1.60;;;;;;;18.49;100.00;100459.22;5014679;28;20105;-69
2022/06/24 02:45:59;;;;;;;2.55;1.77;;;;;;;18.53;100.00;100468.50;5014785;28;20026;-69
2022/06/24 02:48:25;;;;;;;2.08;1.70;;;;;;;18.58;100.00;100471.22;5014229;28;20464;-69
2022/06/24 02:50:52;;;;;;;2.00;1.60;;;;;;;18.62;100.00;100470.66;5014231;28;20077;-69
2022/06/24 02:53:18;;;;;;;5.30;1.80;;;;;;;18.57;100.00;100468.78;5011758;28;20048;-69
2022/06/24 02:55:45;;;;;;;2.75;1.40;;;;;;;18.54;100.00;100459.19;4995010;28;20564;-69
2022/06/24 02:58:12;;;;;;;3.75;1.90;;;;;;;18.55;100.00;100455.34;4995004;28;20158;-69
2022/06/24 03:00:39;;;;;;;6.40;2.13;;;;;;;18.53;100.00;100454.00;4991884;28;20030;-69
2022/06/24 03:03:05;;;;;;;4.00;1.98;;;;;;;18.50;100.00;100447.19;4994990;28;20026;-69
2022/06/24 03:05:30;;;;;;;5.07;2.10;;;;;;;18.60;100.00;100438.88;4994561;28;20385;-69
2022/06/24 03:07:56;;;;;;;2.17;1.88;;;;;;;18.63;100.00;100440.22;4994970;28;20030;-69
2022/06/24 03:10:21;;;;;;;2.92;2.22;;;;;;;18.53;100.00;100434.81;4994346;28;20026;-69
2022/06/24 03:12:46;;;;;;;1.98;1.77;;;;;;;18.53;100.00;100434.81;4998078;28;20465;-69
2022/06/24 03:15:12;;;;;;;4.22;2.38;;;;;;;18.56;100.00;100440.53;5014242;28;20458;-69
2022/06/24 03:17:38;;;;;;;2.28;1.95;;;;;;;18.58;100.00;100426.56;5014056;28;20397;-70
2022/06/24 03:20:06;;;;;;;4.75;1.90;;;;;;;18.53;100.00;100435.63;5014201;28;20389;-69
2022/06/24 03:22:31;;;;;;;3.38;2.10;;;;;;;18.51;100.00;100429.63;5013683;28;20033;-70
2022/06/24 03:24:56;;;;;;;5.85;2.95;;;;;;;18.49;100.00;100428.28;4995108;28;20030;-69
2022/06/24 03:27:21;;;;;;;3.80;2.53;;;;;;;18.50;100.00;100430.72;4994086;28;20026;-69
2022/06/24 03:29:47;;;;;;;4.53;2.20;;;;;;;18.46;100.00;100424.19;4994084;28;20030;-69
2022/06/24 03:32:13;;;;;;;2.72;2.30;;;;;;;18.47;100.00;100436.78;4993798;28;20405;-69
2022/06/24 03:34:39;;;;;;;5.70;2.80;;;;;;;18.45;100.00;100432.69;5004466;28;20117;-69
2022/06/24 03:37:04;;;;;;;3.05;2.78;;;;;;;18.53;100.00;100430.16;4993941;28;20050;-69
2022/06/24 03:39:29;;;;;;;4.88;3.00;;;;;;;18.44;100.00;100420.94;4994429;28;20041;-69
2022/06/24 03:41:54;;;;;;;4.70;2.85;;;;;;;18.39;100.00;100408.09;4993933;28;20027;-69
2022/06/24 03:44:20;;;;;;;4.63;2.97;;;;;;;18.37;100.00;100412.22;4993826;28;20034;-69
2022/06/24 03:46:45;;;;;;;4.50;3.10;;;;;;;18.36;100.00;100416.09;4993726;28;20030;-69
2022/06/24 03:49:10;;;;;;;3.30;2.67;;;;;;;18.33;100.00;100416.66;4993910;28;20458;-69
2022/06/24 03:51:36;;;;;;;4.28;3.00;;;;;;;18.24;100.00;100414.53;4993045;28;20038;-69
2022/06/24 03:54:01;;;;;;;5.47;3.08;;;;;;;18.20;100.00;100432.63;5008321;28;20113;-69
2022/06/24 03:56:27;;;;;;;5.07;2.58;;;;;;;18.27;100.00;100439.69;5013302;28;20072;-69
2022/06/24 03:58:53;;;;;;;5.70;3.33;;;;;;;18.24;100.00;100455.63;5013388;28;20137;-69
2022/06/24 04:01:18;;;;;;;5.97;3.33;;;;;;;18.27;100.00;100450.66;5010238;28;20029;-69
2022/06/24 04:03:43;;;;;;;5.20;3.30;;;;;;;18.28;100.00;100446.81;5013682;28;20474;-69
2022/06/24 04:06:08;;;;;;;4.90;3.75;;;;;;;18.27;100.00;100454.22;5013213;28;20034;-69
2022/06/24 04:08:34;;;;;;;7.78;3.83;;;;;;;18.26;100.00;100466.28;4999071;28;20057;-69
2022/06/24 04:11:10;;;;;;;4.65;4.05;;;;;;;18.21;100.00;100469.88;4993502;28;20073;-69
2022/06/24 04:13:35;;;;;;;4.90;3.50;;;;;;;18.18;100.00;100466.91;5004234;28;20180;-69
2022/06/24 04:16:00;;;;;;;5.40;3.95;;;;;;;18.12;100.00;100471.59;5013190;28;20529;-69
2022/06/24 04:18:26;;;;;;;7.47;4.10;;;;;;;18.16;100.00;100486.34;5012820;28;20041;-69
2022/06/24 04:20:51;;;;;;;4.75;4.00;;;;;;;18.14;100.00;100474.03;5012910;28;20076;-70
2022/06/24 04:23:16;;;;;;;8.93;4.45;;;;;;;18.12;100.00;100477.06;4999907;28;20045;-69
2022/06/24 04:25:41;;;;;;;8.23;4.25;;;;;;;18.16;100.00;100474.56;4993219;28;20073;-69
2022/06/24 04:28:07;;;;;;;7.35;4.25;;;;;;;18.19;100.00;100483.06;4993476;28;20031;-70
2022/06/24 04:30:32;;;;;;;5.45;4.30;;;;;;;18.18;100.00;100475.94;4992697;28;20026;-69
2022/06/24 04:32:57;;;;;;;6.57;4.47;;;;;;;18.23;100.00;100475.88;5000758;28;20029;-69
2022/06/24 04:35:23;;;;;;;6.00;4.30;;;;;;;18.24;100.00;100473.97;5012840;28;20040;-69
2022/06/24 04:37:48;;;;;;;5.88;4.40;;;;;;;18.28;100.00;100471.47;5000418;28;20490;-69
2022/06/24 04:40:13;;;;;;;7.65;4.40;;;;;;;18.27;100.00;100470.66;4992390;28;20027;-70
2022/06/24 04:42:39;;;;;;;6.53;4.90;;;;;;;18.27;100.00;100464.34;4992245;28;20034;-70
2022/06/24 04:45:06;;;;;;;7.60;5.15;;;;;;;18.24;100.00;100465.75;4992433;28;20027;-70
2022/06/24 04:47:32;;;;;;;8.15;5.22;;;;;;;18.23;100.00;100467.66;4992065;28;20470;-70
2022/06/24 04:49:57;;;;;;;8.50;5.18;;;;;;;18.27;100.00;100464.34;4990761;28;20052;-69
2022/06/24 04:52:22;;;;;;;8.25;5.35;;;;;;;18.29;100.00;100467.63;4992432;28;20034;-70
2022/06/24 04:54:48;;;;;;;7.63;5.50;;;;;;;18.33;100.00;100464.03;4992271;28;20032;-70
2022/06/24 04:57:13;;;;;;;6.80;5.65;;;;;;;18.33;100.00;100464.03;4992647;28;20466;-70
2022/06/24 04:59:39;;;;;;;7.35;6.07;;;;;;;18.30;100.00;100463.78;4991950;28;20100;-70
2022/06/24 05:02:05;;;;;;;9.88;5.88;;;;;;;18.31;100.00;100468.97;4988473;28;20042;-70
2022/06/24 05:04:30;;;;;;;7.97;5.35;;;;;;;18.31;100.00;100476.38;4994498;28;20405;-70
2022/06/24 05:06:55;;;;;;;8.15;5.97;;;;;;;18.32;100.00;100475.28;4996023;28;20045;-70
2022/06/24 05:09:21;;;;;;;6.18;5.57;;;;;;;18.32;100.00;100472.53;4995090;28;20165;-70
2022/06/24 05:11:48;;;;;;;8.88;6.03;;;;;;;18.37;100.00;100469.75;4995361;28;20034;-70
2022/06/24 05:14:14;;;;;;;9.88;6.13;;;;;;;18.34;100.00;100470.31;5015207;28;20080;-70
2022/06/24 05:16:40;;;;;;;9.23;6.35;;;;;;;18.39;100.00;100473.03;5013604;28;20030;-70
2022/06/24 05:19:07;;;;;;;8.10;7.28;;;;;;;18.36;100.00;100476.34;5014761;28;20036;-70
2022/06/24 05:21:32;;;;;;;12.13;7.90;;;;;;;18.36;100.00;100473.63;5022024;28;20034;-70
2022/06/24 05:23:57;;;;;;;8.82;7.25;;;;;;;18.41;100.00;100470.81;5010437;28;20030;-70
2022/06/24 05:26:23;;;;;;;11.55;7.72;;;;;;;18.42;100.00;100472.47;4995213;28;20038;-70
2022/06/24 05:28:48;;;;;;;9.27;7.90;;;;;;;18.40;100.00;100470.00;4995060;28;20109;-70
2022/06/24 05:31:13;;;;;;;8.65;7.80;;;;;;;18.39;100.00;100484.81;4995306;28;20108;-70
2022/06/24 05:33:38;;;;;;;10.77;8.55;;;;;;;18.41;100.00;100484.53;5010163;28;20030;-70
2022/06/24 05:36:04;;;;;;;10.02;7.60;;;;;;;18.42;100.00;100483.41;5008892;28;20100;-70
2022/06/24 05:38:29;;;;;;;9.57;8.55;;;;;;;18.40;100.00;100475.50;4958184;28;1052427;-69
2022/06/24 05:40:54;;;;;;;8.90;8.00;;;;;;;18.45;100.00;100480.09;4996140;28;20088;-69
2022/06/24 05:43:20;;;;;;;9.57;7.82;;;;;;;18.45;100.00;100477.38;5007582;28;20462;-69
2022/06/24 05:45:46;;;;;;;9.25;8.02;;;;;;;18.49;100.00;100483.88;5015444;28;20161;-69
2022/06/24 05:48:13;;;;;;;10.02;7.82;;;;;;;18.53;100.00;100489.63;5013397;28;20109;-70
2022/06/24 05:50:39;;;;;;;13.38;8.88;;;;;;;18.52;100.00;100487.97;5015271;28;20068;-70
2022/06/24 05:55:49;;;;;;;10.95;8.65;;;;;;;18.54;100.00;100472.06;5015385;28;20088;-71
2022/06/24 05:58:16;;;;;;;15.93;10.18;;;;;;;18.57;100.00;100472.31;5015283;28;20166;-71
2022/06/24 06:00:41;;;;;;;11.68;9.60;;;;;;;18.56;100.00;100476.16;5012575;28;20033;-72
2022/06/24 06:03:07;;;;;;;13.15;10.52;;;;;;;18.57;100.00;100472.31;5008808;28;20022;-71
2022/06/24 06:05:32;;;;;;;13.85;11.90;;;;;;;18.60;100.00;100473.69;5014794;28;20156;-71
2022/06/24 06:07:57;;;;;;;15.48;11.90;;;;;;;18.66;100.00;100479.91;5014915;28;20041;-73
2022/06/24 06:10:22;;;;;;;13.98;12.18;;;;;;;18.66;100.00;100482.66;5029670;28;20087;-73
2022/06/24 06:12:48;;;;;;;18.92;11.77;;;;;;;18.67;100.00;100481.56;5014937;28;20034;-73
2022/06/24 06:15:13;;;;;;;18.55;12.70;;;;;;;18.73;100.00;100485.88;5015029;28;20112;-72
2022/06/24 06:17:38;;;;;;;20.35;14.13;;;;;;;18.75;100.00;100492.72;5012585;28;20250;-74
2022/06/24 06:20:04;;;;;;;18.40;14.30;;;;;;;18.74;100.00;100490.25;4995489;28;20034;-73
2022/06/24 06:22:30;;;;;;;21.13;15.40;;;;;;;18.72;100.00;100489.72;4995380;28;20030;-73
2022/06/24 06:24:55;;;;;;;26.35;16.02;;;;;;;18.73;100.00;100477.66;4994354;28;20121;-73
2022/06/24 06:27:21;;;;;;;23.08;16.13;;;;;;;18.73;100.00;100480.41;4995131;28;20030;-74
2022/06/24 06:29:47;;;;;;;27.05;16.85;;;;;;;18.76;100.00;100482.56;5009100;28;20037;-73
2022/06/24 06:32:12;;;;;;;28.38;18.92;;;;;;;18.76;100.00;100483.38;5014449;28;20037;-73
2022/06/24 06:34:37;;;;;;;26.45;18.42;;;;;;;18.74;100.00;100479.31;5002609;28;20120;-73
2022/06/24 06:37:03;;;;;;;25.83;18.23;;;;;;;18.76;100.00;100477.06;5014725;28;20077;-74
2022/06/24 06:39:28;;;;;;;23.33;15.43;;;;;;;18.79;100.00;100481.97;5014725;28;20045;-72
2022/06/24 06:41:53;;;;;;;20.23;14.40;;;;;;;18.80;100.00;100491.84;5014876;28;20151;-71
2022/06/24 06:44:19;;;;;;;19.25;13.90;;;;;;;18.77;100.00;100486.94;5014817;28;20026;-72
2022/06/24 06:46:45;;;;;;;18.40;14.05;;;;;;;18.81;100.00;100477.03;5014431;28;20037;-73
2022/06/24 06:49:10;;;;;;;18.10;13.63;;;;;;;18.78;100.00;100480.34;4996596;28;20417;-73
2022/06/24 06:51:35;;;;;;;16.25;13.43;;;;;;;18.86;100.00;100474.28;4994891;28;20035;-72
2022/06/24 06:54:00;;;;;;;20.88;14.43;;;;;;;18.89;100.00;100472.88;4996711;28;20354;-73
2022/06/24 06:56:26;;;;;;;19.40;15.05;;;;;;;18.93;100.00;100468.44;4999605;28;20385;-73
2022/06/24 06:58:51;;;;;;;17.58;14.18;;;;;;;18.93;100.00;100479.41;5006671;28;20398;-75
2022/06/24 07:01:16;;;;;;;18.42;14.48;;;;;;;18.97;100.00;100476.91;5012114;28;20312;-73
2022/06/24 07:03:42;;;;;;;20.48;14.60;;;;;;;19.00;100.00;100463.44;5012923;28;20394;-75
2022/06/24 07:06:07;;;;;;;17.85;14.02;;;;;;;19.04;100.00;100467.22;5014384;28;20057;-76
2022/06/24 07:08:32;;;;;;;17.30;13.98;;;;;;;19.09;100.00;100469.09;5011420;28;20042;-74
2022/06/24 07:10:57;;;;;;;18.00;14.00;;;;;;;19.13;100.00;100473.69;5013391;28;20034;-73
2022/06/24 07:13:23;;;;;;;16.05;13.63;;;;;;;19.17;100.00;100473.13;5013322;28;20049;-73
2022/06/24 07:15:49;;;;;;;18.85;14.57;;;;;;;19.19;100.00;100471.72;5013771;28;20037;-73
2022/06/24 07:18:15;;;;;;;18.52;14.07;;;;;;;19.16;100.00;100461.34;5013006;28;20045;-73
2022/06/24 07:20:42;;;;;;;17.58;15.10;;;;;;;19.13;100.00;100450.94;5012912;28;20044;-73
2022/06/24 07:23:07;;;;;;;17.55;15.23;;;;;;;19.11;100.00;100450.41;5013623;28;20400;-74
2022/06/24 07:25:33;;;;;;;18.67;15.88;;;;;;;19.09;100.00;100452.63;5012471;28;20038;-75
2022/06/24 07:27:59;;;;;;;19.02;16.40;;;;;;;19.12;100.00;100454.78;5012356;28;20038;-75
2022/06/24 07:30:24;;;;;;;19.38;16.33;;;;;;;19.12;100.00;100447.38;5012266;28;20389;-78
2022/06/24 07:32:49;;;;;;;20.05;16.13;;;;;;;19.17;100.00;100451.97;5013500;28;20104;-77
2022/06/24 07:35:15;;;;;;;18.05;15.13;;;;;;;19.16;100.00;100463.25;5006821;28;20019;-77
2022/06/24 07:37:40;;;;;;;18.83;16.02;;;;;;;19.17;100.00;100468.44;5005092;28;20065;-80
2022/06/24 07:40:06;;;;;;;19.63;16.83;;;;;;;19.16;100.00;100475.06;5012226;28;20064;-81
2022/06/24 07:42:31;;;;;;;20.48;18.30;;;;;;;19.11;100.00;100466.88;5007296;28;20493;-80
2022/06/24 07:44:57;;;;;;;23.95;20.50;;;;;;;19.11;100.00;100488.81;4994418;28;20038;-75
2022/06/24 07:47:23;;;;;;;26.38;23.60;;;;;;;19.10;100.00;100498.97;4998681;28;20029;-79
2022/06/24 07:49:48;;;;;;;29.40;26.25;;;;;;;19.07;100.00;100493.25;5012519;28;20040;-77
2022/06/24 07:52:14;;;;;;;33.83;30.20;;;;;;;19.02;100.00;100493.28;5012711;28;20022;-78
2022/06/24 07:54:39;;;;;;;38.58;32.33;;;;;;;18.93;100.00;100496.69;5003967;28;20034;-79
2022/06/24 07:57:05;;;;;;;38.88;33.92;;;;;;;18.91;100.00;100500.81;4993591;28;20060;-77
2022/06/24 07:59:34;;;;;;;38.55;34.22;;;;;;;18.88;100.00;100493.16;4998723;28;20045;-78
2022/06/24 08:02:01;;;;;;;39.88;33.90;;;;;;;18.86;100.00;100490.72;5010208;28;20416;-77
2022/06/24 08:04:30;;;;;;;34.95;31.15;;;;;;;18.87;100.00;100497.84;5011755;28;20404;-75
2022/06/24 08:06:56;;;;;;;32.35;28.85;;;;;;;18.88;100.00;100501.41;5010286;28;20022;-74
2022/06/24 08:09:23;;;;;;;31.95;28.25;;;;;;;18.88;100.00;100504.94;5007213;28;20038;-75
2022/06/24 08:11:49;;;;;;;31.42;28.17;;;;;;;18.86;100.00;100501.69;5012270;28;20037;-78
2022/06/24 08:14:15;;;;;;;33.05;29.48;;;;;;;18.91;100.00;100504.38;5006828;28;20076;-80
2022/06/24 08:16:41;;;;;;;28.95;25.92;;;;;;;18.97;100.00;100498.84;4995756;28;20040;-78
2022/06/24 08:19:07;;;;;;;24.95;21.60;;;;;;;19.03;100.00;100497.69;5005772;28;20025;-77
2022/06/24 08:21:32;;;;;;;27.52;24.30;;;;;;;19.09;100.00;100491.03;5012976;28;20461;-76
2022/06/24 08:23:58;;;;;;;25.30;21.58;;;;;;;19.15;100.00;100494.53;5010660;28;20022;-76
2022/06/24 08:26:23;;;;;;;25.88;21.13;;;;;;;19.27;100.00;100492.19;5000501;28;20101;-75
2022/06/24 08:28:48;;;;;;;20.38;18.15;;;;;;;19.32;100.00;100488.59;4992981;28;20029;-78
2022/06/24 08:31:14;;;;;;;18.58;16.38;;;;;;;19.36;100.00;100478.66;4993322;28;20027;-77
2022/06/24 08:33:39;;;;;;;18.35;16.20;;;;;;;19.52;100.00;100480.09;4992749;28;20026;-77
2022/06/24 08:36:05;;;;;;;18.38;16.48;;;;;;;19.58;100.00;100481.66;4993301;28;20030;-77
2022/06/24 08:38:30;;;;;;;19.67;16.38;;;;;;;19.68;100.00;100480.69;4992536;28;20086;-78
2022/06/24 08:41:01;;;;;;;19.10;16.27;;;;;;;19.74;100.00;100485.00;5004589;28;20402;-77
2022/06/24 08:43:30;;;;;;;14.63;12.65;;;;;;;19.77;100.00;100489.94;5001779;28;20042;-76
2022/06/24 08:45:57;;;;;;;16.92;12.43;;;;;;;19.76;100.00;100492.94;5007406;28;20033;-77
2022/06/24 08:48:25;;;;;;;15.80;12.63;;;;;;;19.79;100.00;100495.13;5012598;28;20034;-77
2022/06/24 08:50:51;;;;;;;16.55;13.65;;;;;;;19.76;100.00;100493.78;5012764;28;20030;-77
2022/06/24 08:53:19;;;;;;;16.52;14.82;;;;;;;19.76;100.00;100487.47;5012789;28;20033;-77
2022/06/24 08:55:48;;;;;;;21.10;18.80;;;;;;;19.77;100.00;100483.63;5012400;28;20030;-77
2022/06/24 08:58:14;;;;;;;25.80;22.80;;;;;;;19.80;100.00;100489.34;5010589;28;20022;-76
2022/06/24 09:00:40;;;;;;;27.13;24.02;;;;;;;19.88;100.00;100485.13;5008958;28;20045;-77
2022/06/24 09:03:07;;;;;;;26.17;23.58;;;;;;;19.86;100.00;100481.88;5010978;28;20064;-77
2022/06/24 09:05:32;;;;;;;23.67;21.38;;;;;;;19.83;100.00;100487.94;5012524;28;20026;-77
2022/06/24 09:08:06;;;;;;;18.38;16.55;;;;;;;19.78;100.00;100483.34;5001013;28;20039;-77
2022/06/24 09:10:34;;;;;;;20.35;18.27;;;;;;;19.86;100.00;100486.53;5000583;28;20030;-76
2022/06/24 09:12:59;;;;;;;20.48;18.00;;;;;;;19.93;100.00;100485.06;5004596;28;20038;-75
2022/06/24 09:15:25;;;;;;;27.25;24.50;;;;;;;19.97;100.00;100488.84;5004848;28;20041;-74
2022/06/24 09:17:51;;;;;;;26.88;24.38;;;;;;;20.04;100.00;100479.41;5008761;28;20033;-74
2022/06/24 09:20:19;;;;;;;27.67;24.77;;;;;;;20.17;100.00;100484.16;5009345;28;20041;-76
2022/06/24 09:22:45;;;;;;;26.10;23.60;;;;;;;20.21;100.00;100487.13;5002649;28;20034;-77
2022/06/24 09:25:11;;;;;;;26.05;23.52;;;;;;;20.19;100.00;100488.22;5000598;28;20080;-76
2022/06/24 09:27:43;;;;;;;22.85;20.35;;;;;;;20.28;100.00;100485.63;5012470;28;20069;-80
2022/06/24 09:30:10;;;;;;;17.58;15.60;;;;;;;20.41;100.00;100485.97;5011348;28;20032;-75
2022/06/24 09:32:51;;;;;;;16.20;14.50;;;;;;;20.50;100.00;100481.41;4992565;28;20030;-73
2022/06/24 09:35:18;;;;;;;17.20;15.32;;;;;;;20.54;100.00;100474.22;5008019;28;20046;-73
2022/06/24 09:37:45;;;;;;;17.10;15.13;;;;;;;20.57;100.00;100484.59;4996005;28;20045;-73
2022/06/24 09:40:21;;;;;;;16.02;14.32;;;;;;;20.64;100.00;100485.03;5012387;28;20113;-73
2022/06/24 09:43:01;;;;;;;15.48;13.82;;;;;;;20.69;100.00;100476.72;5010667;28;20116;-72
2022/06/24 09:45:49;;;;;;;17.80;14.95;;;;;;;20.85;100.00;100477.25;5001204;28;20088;-73
2022/06/24 09:48:29;;;;;;;12.40;11.13;;;;;;;20.87;100.00;100471.47;5011984;28;20026;-72
2022/06/24 09:50:56;;;;;;;10.93;9.70;;;;;;;20.84;100.00;100469.31;5001549;28;20080;-72
2022/06/24 09:53:24;;;;;;;10.25;9.15;;;;;;;20.83;100.00;100471.22;5015748;28;20441;-74
2022/06/24 09:55:50;;;;;;;11.88;8.88;;;;;;;20.81;98.89;100472.69;5014404;28;20080;-73
2022/06/24 09:58:17;;;;;;;10.60;9.45;;;;;;;20.75;100.00;100469.19;5014415;28;20469;-73
2022/06/24 10:00:45;;;;;;;10.13;8.85;;;;;;;20.70;100.00;100477.53;5012050;28;20145;-72
2022/06/24 10:03:12;;;;;;;9.30;8.30;;;;;;;20.66;100.00;100487.50;5015743;28;20053;-72
2022/06/24 10:05:51;;;;;;;10.98;8.43;;;;;;;20.63;100.00;100485.34;5012257;28;20062;-72
2022/06/24 10:08:22;;;;;;;9.75;8.18;;;;;;;20.68;100.00;100488.84;5015599;28;20089;-73
2022/06/24 10:10:53;;;;;;;9.85;8.23;;;;;;;20.74;100.00;100477.75;5015047;28;20531;-73
2022/06/24 10:13:26;;;;;;;11.15;7.82;;;;;;;20.87;100.00;100471.47;5014848;28;20030;-73
2022/06/24 10:15:53;;;;;;;11.35;8.48;;;;;;;20.89;99.18;100475.53;5006590;28;20389;-73
2022/06/24 10:18:21;;;;;;;9.18;7.80;;;;;;;20.94;99.21;100482.03;5015448;28;20030;-73
2022/06/24 10:20:49;;;;;;;9.48;6.90;;;;;;;20.93;97.77;100488.69;5008020;28;20031;-72
2022/06/24 10:23:38;;;;;;;7.88;6.90;;;;;;;20.95;93.72;100509.25;4999371;28;20037;-73
2022/06/24 10:26:26;;;;;;;6.63;4.72;;;;;;;20.63;94.48;100527.38;5013782;28;20091;-77
2022/06/24 10:29:03;;;;;;;6.20;2.50;;;;;;;19.64;100.00;100535.38;5014598;28;20384;-75
2022/06/24 10:31:37;;;;;;;3.63;2.20;;;;;;;19.01;100.00;100547.31;5009169;28;20030;-75
2022/06/24 10:34:02;;;;;;;7.88;2.08;;;;;;;18.39;100.00;100538.78;4995040;28;20039;-76
2022/06/24 10:36:31;;;;;;;7.10;1.60;;;;;;;18.13;100.00;100530.75;4995249;28;20296;-74
2022/06/24 10:39:08;;;;;;;3.33;1.88;;;;;;;18.09;100.00;100534.31;5019520;28;20039;-76
2022/06/24 10:41:38;;;;;;;3.55;2.03;;;;;;;18.12;100.00;100540.06;4995169;28;20040;-76
2022/06/24 10:44:24;;;;;;;3.05;2.30;;;;;;;18.18;100.00;100533.44;5009511;28;20030;-74
2022/06/24 10:47:04;;;;;;;5.00;3.28;;;;;;;18.23;100.00;100530.66;5006955;28;20037;-77
2022/06/24 10:52:35;;;;;;;5.43;3.13;;;;;;;18.40;100.00;100545.88;5013562;28;20045;-74
2022/06/24 10:55:28;;;;;;;4.45;3.60;;;;;;;18.48;100.00;100542.53;5014465;28;20133;-75
2022/06/24 10:58:14;;;;;;;5.10;3.28;;;;;;;18.45;100.00;100534.91;5012030;28;20034;-75
2022/06/24 11:00:42;;;;;;;3.17;2.33;;;;;;;18.45;100.00;100531.31;5011113;28;20026;-74
2022/06/24 11:03:07;;;;;;;3.88;2.15;;;;;;;18.39;100.00;100523.16;5012561;28;20030;-74
2022/06/24 11:05:38;;;;;;;2.53;2.33;;;;;;;18.44;100.00;100519.56;5014405;28;20035;-75
2022/06/24 11:08:12;;;;;;;3.73;2.10;;;;;;;18.49;100.00;100519.50;5028577;28;20288;-76
2022/06/24 11:10:38;;;;;;;3.80;2.80;;;;;;;18.52;100.00;100518.94;5013944;28;20269;-74
2022/06/24 11:13:03;;;;;;;5.50;3.10;;;;;;;18.65;100.00;100509.25;5013666;28;20104;-75
2022/06/24 11:15:37;;;;;;;3.97;3.10;;;;;;;18.71;100.00;100505.34;5012659;28;20462;-76
2022/06/24 11:18:19;;;;;;;4.13;3.17;;;;;;;18.82;100.00;100500.59;4994047;28;20399;-76